Weather at Paletwa Airport

Public forecast

Using degrees Celsius for public forecast. Weather courtesy of forecast.io.

Closest aviation weather report (METAR) to Paletwa Airport

Closest report is Shah Amanat International Airport, 83.9 nm (155.4 km) NW. Retrieved 2020/09/24 05:00 UTC (52 minutes ago):

VGEG 240500Z 18010KT 5000 SCT014 FEW028CB OVC090 30/27 Q1009 NOSIG

Closest aviation forecast (TAF) to Paletwa Airport

Closest forecast is Shah Amanat International Airport, 83.9 nm (155.4 km) NW. Retrieved 2020-09-24 00:54 UTC (5 hours ago):

TAF TAF VGEG 232300Z 2400/2506 16008KT 3500 SCT013 BKN100 TEMPO 240/2406 17020G25KT 2000 RA/TSRA SCT007 FEW025CB OVC090 BECMG 2407/2409 18010KT 4000 HZ SCT015 BKN100 TEMPO 2412/2422 20020KT 2000 RA/TSRA SCT007 FEW025CB BKN090 BECMG 2503/2505 17010KT 4000 HZ/DZ SCT015 BKN100